createdAt,value
2023-05-15T00:03:34.661Z,90.15
2023-05-15T00:07:39.194Z,90.46
2023-05-15T00:11:43.555Z,90.12
2023-05-15T00:15:46.692Z,90.24
2023-05-15T00:19:49.718Z,90.26
2023-05-15T00:23:54.062Z,90.28
2023-05-15T00:27:58.570Z,90.06
2023-05-15T00:32:01.625Z,89.72
2023-05-15T00:36:04.655Z,90.13
2023-05-15T00:40:10.930Z,90.15
2023-05-15T00:44:19.163Z,90.20
2023-05-15T00:48:23.577Z,90.01
2023-05-15T00:52:27.753Z,90.05
2023-05-15T00:56:31.891Z,90.24
2023-05-15T01:00:37.484Z,89.99
2023-05-15T01:04:40.654Z,90.08
2023-05-15T01:08:46.878Z,89.81
2023-05-15T01:12:54.334Z,89.84
2023-05-15T01:16:58.903Z,89.84
2023-05-15T01:21:21.543Z,89.89
2023-05-15T01:26:16.644Z,89.92
2023-05-15T01:30:25.299Z,90.15
2023-05-15T01:34:35.270Z,90.09
2023-05-15T01:38:40.559Z,90.21
2023-05-15T01:42:50.338Z,90.17
2023-05-15T01:46:58.963Z,89.87
2023-05-15T01:51:07.665Z,89.82
2023-05-15T01:55:13.194Z,89.80
2023-05-15T01:59:17.702Z,89.96
2023-05-15T02:03:22.511Z,89.93
2023-05-15T02:07:27.500Z,90.13
2023-05-15T02:11:30.768Z,90.03
2023-05-15T02:15:34.160Z,90.08
2023-05-15T02:19:38.614Z,89.75
2023-05-15T02:23:41.709Z,89.89
2023-05-15T02:27:52.730Z,90.02
2023-05-15T02:32:05.081Z,90.08
2023-05-15T02:36:12.449Z,90.39
2023-05-15T02:40:17.362Z,90.36
2023-05-15T02:44:21.826Z,90.14
2023-05-15T02:48:25.797Z,90.28
2023-05-15T02:52:30.203Z,90.29
2023-05-15T02:56:33.645Z,90.10
2023-05-15T03:00:36.744Z,90.07
2023-05-15T03:04:40.002Z,89.83
2023-05-15T03:08:44.476Z,90.14
2023-05-15T03:12:47.653Z,90.17
2023-05-15T03:16:51.044Z,90.05
2023-05-15T03:20:54.988Z,90.42
2023-05-15T03:25:01.827Z,90.00
2023-05-15T03:29:05.021Z,90.10
2023-05-15T03:33:08.539Z,89.94
2023-05-15T03:37:11.632Z,89.88
2023-05-15T03:41:16.001Z,89.94
2023-05-15T03:45:19.201Z,90.18
2023-05-15T03:49:24.159Z,90.15
2023-05-15T03:53:27.315Z,90.25
2023-05-15T03:57:33.018Z,90.15
2023-05-15T04:01:46.674Z,89.96
2023-05-15T04:05:58.634Z,90.20
2023-05-15T04:10:02.001Z,90.13
2023-05-15T04:14:06.503Z,89.92
2023-05-15T04:18:09.565Z,89.98
2023-05-15T04:22:12.716Z,90.21
2023-05-15T04:26:15.820Z,90.00
2023-05-15T04:30:20.735Z,89.92
2023-05-15T04:34:23.932Z,90.10
2023-05-15T04:38:26.932Z,90.04
2023-05-15T04:42:30.041Z,90.07
2023-05-15T04:46:37.447Z,89.66
2023-05-15T04:50:40.626Z,89.80
2023-05-15T04:54:43.660Z,89.93
2023-05-15T04:58:46.692Z,89.66
2023-05-15T05:02:51.585Z,89.34
2023-05-15T05:06:54.665Z,89.39
2023-05-15T05:10:58.371Z,89.17
2023-05-15T05:15:01.535Z,89.23
2023-05-15T05:19:07.180Z,89.36
2023-05-15T05:23:10.774Z,89.25
2023-05-15T05:27:13.843Z,88.57
2023-05-15T05:31:16.924Z,88.72
2023-05-15T05:35:21.891Z,88.80
2023-05-15T05:39:25.078Z,88.57
2023-05-15T05:43:28.481Z,88.39
2023-05-15T05:47:31.472Z,88.01
2023-05-15T05:51:36.992Z,87.25
2023-05-15T05:55:40.030Z,86.71
2023-05-15T05:59:43.171Z,86.68
2023-05-15T06:03:46.815Z,86.90
2023-05-15T06:07:51.513Z,87.08
2023-05-15T06:11:54.510Z,86.89
2023-05-15T06:15:57.706Z,86.65
2023-05-15T06:20:00.888Z,86.58
2023-05-15T06:24:05.474Z,86.66
2023-05-15T06:28:08.471Z,86.39
2023-05-15T06:32:11.482Z,86.65
2023-05-15T06:36:17.049Z,86.06
2023-05-15T06:40:22.355Z,85.59
2023-05-15T06:44:25.795Z,85.96
2023-05-15T06:48:28.939Z,85.04
2023-05-15T06:52:31.975Z,85.16
2023-05-15T06:56:36.450Z,85.42
2023-05-15T07:00:39.500Z,85.24
2023-05-15T07:04:42.571Z,84.68
2023-05-15T07:08:45.773Z,85.03
2023-05-15T07:12:50.152Z,85.04
2023-05-15T07:16:53.327Z,84.99
2023-05-15T07:20:56.452Z,84.80
2023-05-15T07:24:59.451Z,83.95
2023-05-15T07:29:04.251Z,83.41
2023-05-15T07:33:07.547Z,83.57
2023-05-15T07:37:10.986Z,83.81
2023-05-15T07:41:14.106Z,83.27
2023-05-15T07:45:18.667Z,82.95
2023-05-15T07:49:21.678Z,83.18
2023-05-15T07:53:24.660Z,83.37
2023-05-15T07:57:27.780Z,83.26
2023-05-15T08:01:32.894Z,82.66
2023-05-15T08:05:36.265Z,82.44
2023-05-15T08:09:39.310Z,81.97
2023-05-15T08:13:42.306Z,81.87
2023-05-15T08:17:46.898Z,81.64
2023-05-15T08:21:49.903Z,80.87
2023-05-15T08:25:52.992Z,80.14
2023-05-15T08:29:56.000Z,79.49
2023-05-15T08:34:00.421Z,78.75
2023-05-15T08:38:04.000Z,77.95
2023-05-15T08:42:11.648Z,78.30
2023-05-15T08:46:14.957Z,77.47
2023-05-15T08:50:20.492Z,76.90
2023-05-15T08:54:23.926Z,76.67
2023-05-15T08:58:28.763Z,74.96
2023-05-15T09:02:31.883Z,74.24
2023-05-15T09:06:37.099Z,72.70
2023-05-15T09:10:40.588Z,72.63
2023-05-15T09:14:43.657Z,70.70
2023-05-15T09:18:47.207Z,70.58
2023-05-15T09:22:51.655Z,70.33
2023-05-15T09:27:05.217Z,69.61
2023-05-15T09:31:09.356Z,69.99
2023-05-15T09:35:31.121Z,69.79
2023-05-15T09:39:42.065Z,69.54
2023-05-15T09:43:45.030Z,70.46
2023-05-15T09:47:48.309Z,70.71
2023-05-15T09:51:51.808Z,69.71
2023-05-15T09:55:56.869Z,69.03
2023-05-15T10:00:10.352Z,68.58
2023-05-15T10:04:15.367Z,69.09
2023-05-15T10:08:28.284Z,69.06
2023-05-15T10:12:33.127Z,69.33
2023-05-15T10:16:37.509Z,67.09
2023-05-15T10:20:40.932Z,67.27
2023-05-15T10:24:46.063Z,66.65
2023-05-15T10:28:52.093Z,65.60
2023-05-15T10:32:56.997Z,65.83
2023-05-15T10:37:01.540Z,65.44
2023-05-15T10:41:16.401Z,64.32
2023-05-15T10:45:21.465Z,64.95
2023-05-15T10:49:24.736Z,64.50
2023-05-15T10:53:27.835Z,64.63
2023-05-15T10:57:31.281Z,63.54
2023-05-15T11:01:37.205Z,63.58
2023-05-15T11:06:10.947Z,62.82
2023-05-15T11:10:37.866Z,63.02
2023-05-15T11:14:42.125Z,62.65
2023-05-15T11:18:47.684Z,62.57
2023-05-15T11:23:00.336Z,62.40
2023-05-15T11:27:04.790Z,62.39
2023-05-15T11:31:08.038Z,61.92
2023-05-15T11:35:13.509Z,61.06
2023-05-15T11:39:17.268Z,61.53
2023-05-15T11:43:22.559Z,61.35
2023-05-15T11:47:26.684Z,60.12
2023-05-15T11:51:31.718Z,60.17
2023-05-15T11:55:37.373Z,60.35
2023-05-15T11:59:40.591Z,60.08
2023-05-15T12:03:44.282Z,59.44
2023-05-15T12:07:48.972Z,59.17
2023-05-15T12:11:53.150Z,58.08
2023-05-15T12:15:56.955Z,57.51
2023-05-15T12:20:01.361Z,57.79
2023-05-15T12:24:08.101Z,58.26
2023-05-15T12:28:13.302Z,57.25
2023-05-15T12:32:16.644Z,57.14
2023-05-15T12:36:22.070Z,57.29
2023-05-15T12:40:26.913Z,56.30
2023-05-15T12:44:30.266Z,56.90
2023-05-15T12:48:33.899Z,57.33
2023-05-15T12:52:36.907Z,56.97
2023-05-15T12:56:41.727Z,56.67
2023-05-15T13:00:46.406Z,55.90
2023-05-15T13:04:49.630Z,55.54
2023-05-15T13:08:52.853Z,56.08
2023-05-15T13:12:59.007Z,56.08
2023-05-15T13:17:03.934Z,56.36
2023-05-15T13:21:07.038Z,55.72
2023-05-15T13:25:10.751Z,55.77
2023-05-15T13:29:15.312Z,55.32
2023-05-15T13:33:18.417Z,55.64
2023-05-15T13:37:21.417Z,55.89
2023-05-15T13:41:24.488Z,56.03
2023-05-15T13:45:28.960Z,56.55
2023-05-15T13:49:32.091Z,56.84
2023-05-15T13:53:35.170Z,55.80
2023-05-15T13:57:38.570Z,56.20
2023-05-15T14:01:43.369Z,55.30
2023-05-15T14:05:46.504Z,55.23
2023-05-15T14:09:49.713Z,55.87
2023-05-15T14:13:52.714Z,56.07
2023-05-15T14:17:57.131Z,56.31
2023-05-15T14:22:00.152Z,56.60
2023-05-15T14:26:03.706Z,56.94
2023-05-15T14:30:08.097Z,56.19
2023-05-15T14:34:14.124Z,55.53
2023-05-15T14:38:17.187Z,55.67
2023-05-15T14:42:21.151Z,55.02
2023-05-15T14:46:24.318Z,54.55
2023-05-15T14:50:29.037Z,55.39
2023-05-15T14:54:33.127Z,55.72
2023-05-15T14:58:36.403Z,54.89
2023-05-15T15:02:39.440Z,54.75
2023-05-15T15:06:44.301Z,54.88
2023-05-15T15:10:48.953Z,54.62
2023-05-15T15:14:55.185Z,54.68
2023-05-15T15:19:03.449Z,55.15
2023-05-15T15:23:07.959Z,54.57
2023-05-15T15:27:11.616Z,55.69
2023-05-15T15:31:15.499Z,56.75
2023-05-15T15:35:18.562Z,55.07
2023-05-15T15:39:23.433Z,55.87
2023-05-15T15:48:20.819Z,56.38
2023-05-15T15:52:23.907Z,56.53
2023-05-15T15:56:28.276Z,56.82
2023-05-15T16:00:31.454Z,56.76
2023-05-15T16:04:34.493Z,56.98
2023-05-15T16:08:37.574Z,57.29
2023-05-15T16:12:48.788Z,57.07
2023-05-15T16:16:58.604Z,57.09
2023-05-15T16:21:02.508Z,57.35
2023-05-15T16:25:07.184Z,57.42
2023-05-15T16:29:11.979Z,57.46
2023-05-15T16:33:15.021Z,57.36
2023-05-15T16:37:19.497Z,57.40
2023-05-15T16:41:26.399Z,57.45
2023-05-15T16:45:30.862Z,58.15
2023-05-15T16:49:33.854Z,58.07
2023-05-15T16:53:36.914Z,57.94
2023-05-15T16:57:39.976Z,58.16
2023-05-15T17:01:44.534Z,58.27
2023-05-15T17:05:47.626Z,58.70
2023-05-15T17:09:50.594Z,58.63
2023-05-15T17:13:53.581Z,58.57
2023-05-15T17:17:57.958Z,58.69
2023-05-15T17:22:00.953Z,58.60
2023-05-15T17:26:04.327Z,58.66
2023-05-15T17:30:08.937Z,58.67
2023-05-15T17:34:13.341Z,58.88
2023-05-15T17:38:16.422Z,59.10
2023-05-15T17:42:22.456Z,59.31
2023-05-15T17:46:26.668Z,59.72
2023-05-15T17:50:31.709Z,59.68
2023-05-15T17:54:35.259Z,59.68
2023-05-15T17:58:38.890Z,59.68
2023-05-15T18:02:42.557Z,60.10
2023-05-15T18:06:50.131Z,60.24
2023-05-15T18:10:53.317Z,60.27
2023-05-15T18:14:56.311Z,60.55
2023-05-15T18:18:59.522Z,60.98
2023-05-15T18:23:03.930Z,61.41
2023-05-15T18:27:07.169Z,61.80
2023-05-15T18:31:10.410Z,61.94
2023-05-15T18:35:13.686Z,62.20
2023-05-15T18:39:18.066Z,62.41
2023-05-15T18:43:21.517Z,62.64
2023-05-15T18:47:24.574Z,62.64
2023-05-15T18:51:27.831Z,63.04
2023-05-15T18:55:32.352Z,63.32
2023-05-15T18:59:35.625Z,63.43
2023-05-15T19:03:38.828Z,63.76
2023-05-15T19:07:42.336Z,64.06
2023-05-15T19:11:47.410Z,64.22
2023-05-15T19:15:53.872Z,64.27
2023-05-15T19:19:56.844Z,64.49
2023-05-15T19:23:59.902Z,64.61
2023-05-15T19:28:04.274Z,64.68
2023-05-15T19:32:08.540Z,64.87
2023-05-15T19:36:13.217Z,65.13
2023-05-15T19:40:16.636Z,65.14
2023-05-15T19:44:21.131Z,65.25
2023-05-15T19:48:24.199Z,65.65
2023-05-15T19:52:27.213Z,65.72
2023-05-15T19:56:30.334Z,65.74
2023-05-15T20:00:34.904Z,65.89
2023-05-15T20:04:38.743Z,66.18
2023-05-15T20:08:42.079Z,66.24
2023-05-15T20:12:46.119Z,66.33
2023-05-15T20:16:54.030Z,66.33
2023-05-15T20:20:58.484Z,66.55
2023-05-15T20:25:01.474Z,66.63
2023-05-15T20:29:04.559Z,66.72
2023-05-15T20:33:09.002Z,66.57
2023-05-15T20:37:12.860Z,66.86
2023-05-15T20:41:16.761Z,66.71
2023-05-15T20:45:20.229Z,66.80
2023-05-15T20:49:24.633Z,67.13
2023-05-15T20:53:28.582Z,67.12
2023-05-15T20:57:31.685Z,67.24
2023-05-15T21:01:34.818Z,67.36
2023-05-15T21:05:39.594Z,67.42
2023-05-15T21:09:42.639Z,67.71
2023-05-15T21:13:45.720Z,67.77
2023-05-15T21:17:48.781Z,67.94
2023-05-15T21:21:53.217Z,68.25
2023-05-15T21:25:56.358Z,68.12
2023-05-15T21:29:59.404Z,68.31
2023-05-15T21:34:02.464Z,68.22
2023-05-15T21:38:07.609Z,68.24
2023-05-15T21:42:11.032Z,68.52
2023-05-15T21:46:14.327Z,68.43
2023-05-15T21:50:17.542Z,68.63
2023-05-15T21:54:21.893Z,68.62
2023-05-15T21:58:24.965Z,68.96
2023-05-15T22:02:28.013Z,69.21
2023-05-15T22:06:31.781Z,69.54
2023-05-15T22:10:36.186Z,69.48
2023-05-15T22:14:46.937Z,69.89
2023-05-15T22:19:00.393Z,70.07
2023-05-15T22:23:03.483Z,70.16
2023-05-15T22:27:08.264Z,70.42
2023-05-15T22:31:11.335Z,70.50
2023-05-15T22:35:14.457Z,70.80
2023-05-15T22:39:17.824Z,70.83
2023-05-15T22:43:22.622Z,71.28
2023-05-15T22:47:26.061Z,71.21
2023-05-15T22:51:30.285Z,71.09
2023-05-15T22:55:33.768Z,70.99
2023-05-15T22:59:38.304Z,71.13
2023-05-15T23:03:41.479Z,70.96
2023-05-15T23:07:45.112Z,71.11
2023-05-15T23:11:48.136Z,71.23
2023-05-15T23:15:52.571Z,70.93
2023-05-15T23:19:55.723Z,70.89
2023-05-15T23:23:58.793Z,70.52
2023-05-15T23:28:01.842Z,71.02
2023-05-15T23:32:07.890Z,70.98
2023-05-15T23:36:10.980Z,70.81
2023-05-15T23:40:15.372Z,70.67
2023-05-15T23:44:19.631Z,70.78
2023-05-15T23:48:24.088Z,70.45
2023-05-15T23:52:27.303Z,70.53
2023-05-15T23:56:30.361Z,70.42
